Time;durP1;ratioP1;P1;durP2;ratioP2;P2;SDS_P1;SDS_P2;PMS_P1;PMS_P2;Temp;Humidity;BMP_temperature;BMP_pressure;BME280_temperature;BME280_humidity;BME280_pressure;Samples;Min_cycle;Max_cycle;Signal;HPM_P1;HPM_P2
2022/01/27 00:01:29;;;;;;;24.57;17.30;;;3.40;1.00;4.00;101812.00;;;;5069311;28;20517;-84
2022/01/27 00:04:09;;;;;;;24.43;17.20;;;3.40;1.00;3.90;101821.00;;;;5072543;28;20471;-84
2022/01/27 00:06:40;;;;;;;27.27;18.67;;;3.40;1.00;3.90;101804.00;;;;5057282;28;20451;-84
2022/01/27 00:09:17;;;;;;;22.30;15.80;;;3.40;1.00;3.90;101811.00;;;;5068855;28;20499;-86
2022/01/27 00:11:47;;;;;;;25.30;16.70;;;3.40;1.00;3.90;101823.00;;;;5083510;28;20473;-86
2022/01/27 00:14:19;;;;;;;24.60;18.43;;;3.30;1.00;3.80;101805.00;;;;5070717;28;20495;-87
2022/01/27 00:16:55;;;;;;;25.40;16.43;;;3.30;1.00;217.30;158318.00;;;;5072290;28;20478;-85
2022/01/27 00:19:24;;;;;;;23.70;17.80;;;3.30;1.00;3.80;101786.00;;;;5084874;28;20480;-83
2022/01/27 00:21:54;;;;;;;25.60;17.10;;;3.30;1.00;3.90;101787.00;;;;5068852;28;20459;-85
2022/01/27 00:24:23;;;;;;;24.50;17.33;;;3.30;1.00;3.90;101787.00;;;;5070951;28;20467;-88
2022/01/27 00:26:53;;;;;;;25.87;17.60;;;3.40;1.00;3.90;101775.00;;;;5066154;28;20563;-87
2022/01/27 00:29:21;;;;;;;25.83;17.60;;;3.40;1.00;3.80;67091.00;;;;5066726;28;20474;-86
2022/01/27 00:31:50;;;;;;;23.87;16.30;;;3.30;1.00;3.80;67096.00;;;;5064876;28;20456;-85
2022/01/27 00:34:19;;;;;;;25.70;17.60;;;3.30;1.00;3.80;67091.00;;;;5067687;28;20459;-84
2022/01/27 00:36:47;;;;;;;26.43;18.60;;;3.30;1.00;3.80;67094.00;;;;5079223;28;20466;-86
2022/01/27 00:39:17;;;;;;;22.70;16.40;;;3.30;1.00;217.30;158276.00;;;;5065049;28;20485;-85
2022/01/27 00:41:46;;;;;;;27.30;18.27;;;3.20;1.00;3.70;67067.00;;;;5066332;28;20444;-84
2022/01/27 00:44:15;;;;;;;21.17;14.60;;;3.20;1.00;3.70;67074.00;;;;5071369;28;20485;-85
2022/01/27 00:46:43;;;;;;;26.10;17.60;;;3.10;1.00;3.70;101735.00;;;;5066108;28;20989;-84
2022/01/27 00:49:12;;;;;;;25.90;17.60;;;3.10;1.00;3.70;101758.00;;;;5068344;28;20471;-84
2022/01/27 00:51:44;;;;;;;28.53;18.80;;;3.10;1.00;3.70;101748.00;;;;5065152;28;20964;-85
2022/01/27 00:54:18;;;;;;;25.17;17.00;;;3.20;1.00;3.70;101734.00;;;;5064892;28;20455;-84
2022/01/27 00:56:53;;;;;;;26.27;17.83;;;3.20;1.00;3.70;101747.00;;;;5065181;28;20456;-84
2022/01/27 00:59:33;;;;;;;23.57;17.37;;;3.20;1.00;3.70;101746.00;;;;5061922;28;21214;-85
2022/01/27 01:02:11;;;;;;;27.57;18.47;;;3.20;1.00;3.70;101732.00;;;;5064992;28;20679;-84
2022/01/27 01:04:43;;;;;;;25.30;16.40;;;3.10;1.00;3.70;101736.00;;;;5064089;28;20475;-83
2022/01/27 01:07:13;;;;;;;26.40;17.27;;;3.10;1.00;3.60;101732.00;;;;5066170;28;20448;-84
2022/01/27 01:13:24;;;;;;;25.00;17.07;;;3.20;1.00;217.30;158251.00;;;;5068759;28;20523;-85
2022/01/27 01:15:36;;;;;;;28.17;18.93;;;3.10;1.00;217.30;158251.00;;;;5070116;28;20452;-85
2022/01/27 01:18:19;;;;;;;26.43;17.60;;;3.10;1.00;3.80;101739.00;;;;5057772;28;20511;-87
2022/01/27 01:21:13;;;;;;;28.20;18.90;;;3.20;1.00;3.80;101749.00;;;;5071305;28;20449;-86
2022/01/27 01:29:39;;;;;;;30.20;18.90;;;3.30;1.00;3.90;101735.00;;;;5058560;28;20516;-86
2022/01/27 01:32:17;;;;;;;24.07;17.90;;;3.30;1.00;3.90;101734.00;;;;5063466;28;20960;-85
2022/01/27 01:34:48;;;;;;;25.60;18.07;;;3.30;1.00;217.30;158302.00;;;;5079246;28;20455;-83
2022/01/27 01:37:20;;;;;;;25.73;17.70;;;3.30;1.00;217.30;158237.00;;;;5043983;28;20455;-83
2022/01/27 01:39:48;;;;;;;27.73;18.47;;;3.20;1.00;52.70;158276.00;;;;5062794;28;20475;-86
2022/01/27 01:42:18;;;;;;;28.10;18.93;;;3.20;1.00;52.70;158251.00;;;;5071017;28;20524;-83
2022/01/27 01:44:49;;;;;;;26.37;19.73;;;3.20;1.00;3.70;101711.00;;;;5076049;28;20514;-85
2022/01/27 01:47:20;;;;;;;28.03;20.60;;;3.20;1.00;3.70;101742.00;;;;5057399;28;20804;-83
2022/01/27 01:49:48;;;;;;;23.93;16.77;;;3.30;1.00;217.30;158292.00;;;;5057400;28;20472;-84
2022/01/27 01:52:18;;;;;;;26.83;19.50;;;3.00;1.00;217.30;158267.00;;;;5069627;28;20525;-83
2022/01/27 01:54:46;;;;;;;30.70;19.30;;;3.20;1.00;217.30;158261.00;;;;5060438;28;20460;-84
2022/01/27 01:57:15;;;;;;;31.93;20.00;;;3.20;1.00;3.70;101711.00;;;;5062599;28;20451;-84
2022/01/27 01:59:43;;;;;;;31.27;20.73;;;3.20;1.00;3.70;101709.00;;;;5077568;28;20517;-84
2022/01/27 02:02:13;;;;;;;25.77;17.60;;;3.00;1.00;3.70;101707.00;;;;5057411;28;20447;-83
2022/01/27 02:04:43;;;;;;;28.70;18.90;;;3.20;1.00;3.60;101695.00;;;;5060256;28;20480;-86
2022/01/27 02:07:28;;;;;;;29.17;20.53;;;3.10;1.00;3.60;67049.00;;;;5060907;28;20463;-84
2022/01/27 02:10:09;;;;;;;29.03;18.20;;;3.10;1.00;3.60;101694.00;;;;5056645;28;20488;-84
2022/01/27 02:18:26;;;;;;;29.37;20.63;;;3.00;1.00;3.50;101686.00;;;;5059643;28;20468;-81
2022/01/27 02:20:56;;;;;;;26.77;18.83;;;3.00;1.00;3.50;101670.00;;;;5065629;28;20490;-83
2022/01/27 02:23:24;;;;;;;30.43;20.30;;;3.00;1.00;217.30;158199.00;;;;5069469;28;20479;-83
2022/01/27 02:25:52;;;;;;;29.03;21.40;;;3.00;1.00;3.60;101665.00;;;;5067689;28;20486;-83
2022/01/27 02:28:21;;;;;;;28.60;20.00;;;3.00;1.00;3.50;101667.00;;;;5063637;28;20479;-84
2022/01/27 02:30:49;;;;;;;28.20;20.47;;;3.00;1.00;3.50;101661.00;;;;5050875;28;20456;-84
2022/01/27 02:33:29;;;;;;;26.33;18.20;;;3.00;1.00;217.30;158170.00;;;;5055875;28;20559;-83
2022/01/27 02:35:59;;;;;;;32.77;21.17;;;3.00;1.00;3.50;101662.00;;;;5056251;28;20850;-83
2022/01/27 02:38:28;;;;;;;30.43;19.60;;;2.90;1.00;3.50;101661.00;;;;5059874;28;20479;-83
2022/01/27 02:41:04;;;;;;;29.63;20.90;;;3.00;1.00;3.50;67033.00;;;;5057583;28;20455;-84
2022/01/27 02:43:32;;;;;;;27.07;19.10;;;3.10;1.00;3.60;101661.00;;;;5063837;28;20450;-85
2022/01/27 02:46:07;;;;;;;31.50;20.83;;;3.00;1.00;3.60;101669.00;;;;5067182;28;20465;-85
2022/01/27 02:48:36;;;;;;;29.37;19.70;;;3.10;1.00;3.60;101656.00;;;;5088546;28;20467;-84
2022/01/27 02:51:06;;;;;;;30.10;19.50;;;3.10;1.00;217.30;158235.00;;;;5067223;28;20454;-84
2022/01/27 02:53:35;;;;;;;28.63;19.47;;;3.10;1.00;3.70;67067.00;;;;5064955;28;20462;-84
2022/01/27 02:56:03;;;;;;;28.93;20.53;;;3.10;1.00;3.70;101648.00;;;;5058930;28;20444;-83
2022/01/27 02:58:31;;;;;;;28.90;20.30;;;3.20;1.00;3.70;101645.00;;;;5056233;28;21040;-84
2022/01/27 03:01:00;;;;;;;30.27;21.83;;;3.20;1.00;3.60;67049.00;;;;5073035;28;20472;-84
2022/01/27 03:03:29;;;;;;;29.53;20.17;;;3.10;1.00;3.60;101639.00;;;;5054977;28;20465;-84
2022/01/27 03:05:57;;;;;;;33.80;23.07;;;3.10;1.00;3.60;101628.00;;;;5084527;28;20488;-85
2022/01/27 03:08:27;;;;;;;31.90;21.57;;;3.00;1.00;3.50;101652.00;;;;5070896;28;20510;-85
2022/01/27 03:11:03;;;;;;;31.80;20.13;;;3.00;1.00;3.60;101655.00;;;;5075658;28;20498;-85
2022/01/27 03:13:33;;;;;;;29.10;18.93;;;3.00;1.00;3.60;101639.00;;;;5091045;28;20450;-85
2022/01/27 03:16:05;;;;;;;28.93;19.27;;;3.00;1.00;3.60;67051.00;;;;5074437;28;20435;-85
2022/01/27 03:18:33;;;;;;;29.17;19.87;;;3.00;1.00;3.60;101636.00;;;;5042339;28;20494;-84
2022/01/27 03:21:02;;;;;;;33.80;20.17;;;3.00;1.00;3.50;101613.00;;;;5060513;28;20443;-85
2022/01/27 03:23:33;;;;;;;31.40;21.17;;;3.10;1.00;3.50;101636.00;;;;5067325;28;20451;-84
2022/01/27 03:26:05;;;;;;;38.93;23.33;;;3.00;1.00;3.60;101630.00;;;;5060026;28;20480;-84
2022/01/27 03:28:33;;;;;;;34.63;22.17;;;3.00;1.00;3.60;67043.00;;;;5059794;28;20567;-84
2022/01/27 03:31:02;;;;;;;34.13;21.70;;;3.00;1.00;3.60;101642.00;;;;5062513;28;20457;-84
2022/01/27 03:33:31;;;;;;;36.83;23.60;;;3.10;1.00;52.70;158235.00;;;;5061498;28;20454;-85
2022/01/27 03:35:59;;;;;;;34.63;22.80;;;3.10;1.00;217.30;158225.00;;;;5076732;28;20456;-85
2022/01/27 03:38:28;;;;;;;32.93;22.47;;;3.10;1.00;3.70;101627.00;;;;5073486;28;20487;-85
2022/01/27 03:40:58;;;;;;;31.03;20.57;;;3.10;1.00;3.60;101599.00;;;;5053641;28;20475;-85
2022/01/27 03:43:27;;;;;;;32.37;22.23;;;3.10;1.00;3.60;101615.00;;;;5061535;28;20790;-85
2022/01/27 03:45:55;;;;;;;35.87;22.93;;;3.10;1.00;3.70;101602.00;;;;5062573;28;20468;-85
2022/01/27 03:48:23;;;;;;;34.43;23.53;;;3.20;1.00;3.60;101573.00;;;;5075849;28;20511;-85
2022/01/27 03:50:52;;;;;;;33.83;21.90;;;3.10;1.00;3.60;101607.00;;;;5041847;28;20444;-85
2022/01/27 03:53:20;;;;;;;34.03;22.07;;;3.00;1.00;3.50;101609.00;;;;5054336;28;20473;-85
2022/01/27 03:55:50;;;;;;;36.03;22.10;;;3.00;1.00;3.50;101602.00;;;;5059693;28;20459;-85
2022/01/27 03:58:20;;;;;;;34.20;21.90;;;3.00;1.00;3.50;101609.00;;;;5056388;28;20575;-85
2022/01/27 04:00:48;;;;;;;39.10;25.63;;;3.00;1.00;3.50;101624.00;;;;5057030;28;20467;-85
2022/01/27 04:03:19;;;;;;;34.73;22.23;;;3.00;1.00;3.40;101613.00;;;;5058037;28;20472;-85
2022/01/27 04:05:52;;;;;;;32.20;21.87;;;3.00;1.00;3.40;101591.00;;;;5059768;28;20474;-85
2022/01/27 04:08:21;;;;;;;33.30;21.13;;;2.90;1.00;3.40;101629.00;;;;5055451;28;20975;-85
2022/01/27 04:10:50;;;;;;;31.17;20.60;;;2.90;1.00;3.40;101648.00;;;;5056015;28;20569;-85
2022/01/27 04:13:20;;;;;;;35.60;22.67;;;3.00;1.00;3.40;66998.00;;;;5054896;28;20562;-85
2022/01/27 04:15:48;;;;;;;31.50;20.00;;;2.90;1.00;3.40;101621.00;;;;5054125;28;20479;-87
2022/01/27 04:18:18;;;;;;;33.67;22.30;;;2.90;1.00;3.40;101632.00;;;;5052455;28;20483;-85
2022/01/27 04:20:46;;;;;;;34.00;23.17;;;2.90;1.00;3.50;101619.00;;;;5035176;28;20459;-86
2022/01/27 04:23:14;;;;;;;36.27;23.13;;;2.90;1.00;3.50;101609.00;;;;5050757;28;20525;-85
2022/01/27 04:25:43;;;;;;;35.40;22.07;;;2.90;1.00;3.40;101626.00;;;;5050825;28;20490;-85
2022/01/27 04:28:15;;;;;;;34.57;22.40;;;2.90;1.00;3.50;101600.00;;;;5050526;28;20480;-84
2022/01/27 04:30:45;;;;;;;37.80;21.97;;;2.90;1.00;3.40;101580.00;;;;5053836;28;20485;-86
2022/01/27 04:33:16;;;;;;;33.00;22.57;;;2.90;1.00;217.30;158148.00;;;;5035693;28;20456;-86
2022/01/27 04:35:48;;;;;;;34.90;23.27;;;2.90;1.00;3.50;101584.00;;;;5053484;28;20656;-85
2022/01/27 04:38:32;;;;;;;35.27;22.43;;;2.90;1.00;217.30;158170.00;;;;5045124;28;20483;-83
2022/01/27 04:41:09;;;;;;;36.87;24.07;;;3.10;1.00;52.70;158170.00;;;;5061706;28;20989;-84
2022/01/27 04:43:43;;;;;;;33.27;20.73;;;3.00;1.00;3.40;101592.00;;;;5047030;28;20485;-85
2022/01/27 04:46:23;;;;;;;37.10;23.20;;;2.90;1.00;3.30;101583.00;;;;5061556;28;20476;-84
2022/01/27 04:48:54;;;;;;;33.83;22.20;;;2.90;1.00;3.30;101561.00;;;;5064805;28;20479;-85
2022/01/27 04:51:24;;;;;;;32.60;20.10;;;2.80;1.00;3.30;101579.00;;;;5060097;28;20440;-83
2022/01/27 04:53:59;;;;;;;31.00;20.33;;;2.80;1.00;217.30;158092.00;;;;5060572;28;20490;-84
2022/01/27 04:56:31;;;;;;;33.00;19.93;;;2.80;1.00;3.30;101570.00;;;;5064125;28;21011;-84
2022/01/27 04:59:03;;;;;;;33.30;20.93;;;2.80;1.00;217.30;158108.00;;;;5062848;28;20486;-84
2022/01/27 05:01:38;;;;;;;34.27;22.70;;;2.80;1.00;217.30;158132.00;;;;5063974;28;20447;-84
2022/01/27 05:04:10;;;;;;;34.23;21.10;;;2.90;1.00;3.40;101567.00;;;;5056454;28;20454;-85
2022/01/27 05:06:39;;;;;;;30.00;20.03;;;2.90;1.00;3.50;101570.00;;;;5058065;28;20474;-84
2022/01/27 05:09:08;;;;;;;32.03;20.80;;;3.00;1.00;3.50;101587.00;;;;5064490;28;20488;-85
2022/01/27 05:11:43;;;;;;;30.37;19.90;;;3.00;1.00;3.50;101580.00;;;;5059409;28;20472;-84
2022/01/27 05:14:16;;;;;;;33.30;21.90;;;3.10;1.00;3.60;101580.00;;;;5058065;28;20528;-83
2022/01/27 05:16:45;;;;;;;33.07;20.33;;;3.10;1.00;3.50;67025.00;;;;5063304;28;20444;-83
2022/01/27 05:19:15;;;;;;;32.63;20.03;;;3.10;1.00;3.60;67043.00;;;;5071575;28;20456;-83
2022/01/27 05:21:44;;;;;;;33.17;21.13;;;3.10;1.00;217.30;158225.00;;;;5075269;28;20452;-83
2022/01/27 05:24:13;;;;;;;31.00;20.97;;;3.10;1.00;3.60;101574.00;;;;5073484;28;20431;-83
2022/01/27 05:26:41;;;;;;;29.23;19.20;;;3.20;1.00;3.60;101581.00;;;;5083316;28;20478;-85
2022/01/27 05:29:10;;;;;;;32.60;20.37;;;3.10;1.00;3.60;101590.00;;;;5076962;28;20483;-85
2022/01/27 05:31:39;;;;;;;29.70;18.93;;;3.20;1.00;3.50;101600.00;;;;5078773;28;20467;-83
2022/01/27 05:34:09;;;;;;;30.47;20.53;;;3.00;1.00;3.50;67011.00;;;;5071495;28;20463;-84
2022/01/27 05:36:38;;;;;;;29.50;19.53;;;3.00;1.00;3.40;67016.00;;;;5072477;28;20538;-84
2022/01/27 05:39:06;;;;;;;27.30;19.03;;;3.00;1.00;217.30;158148.00;;;;5056794;28;20479;-84
2022/01/27 05:41:36;;;;;;;28.87;19.43;;;3.00;1.00;52.70;158170.00;;;;5064308;28;20462;-84
2022/01/27 05:44:05;;;;;;;27.20;17.87;;;3.00;1.00;3.60;101596.00;;;;5082878;28;20514;-84
2022/01/27 05:46:33;;;;;;;32.10;21.13;;;3.00;1.00;3.60;101608.00;;;;5064163;28;20448;-84
2022/01/27 05:49:01;;;;;;;38.83;24.73;;;3.00;1.00;3.60;101603.00;;;;5072560;28;20484;-84
2022/01/27 05:51:31;;;;;;;29.67;19.80;;;3.10;1.00;3.60;101621.00;;;;5052803;28;20486;-84
2022/01/27 05:54:00;;;;;;;30.63;20.43;;;3.20;1.00;3.60;101602.00;;;;5053786;28;20486;-84
2022/01/27 05:56:28;;;;;;;34.50;20.00;;;3.10;1.00;3.60;67043.00;;;;5053680;28;20459;-84
2022/01/27 05:58:56;;;;;;;32.70;19.87;;;3.20;1.00;3.60;101615.00;;;;5040278;28;20483;-86
2022/01/27 06:01:25;;;;;;;35.77;21.20;;;3.20;1.00;3.60;101612.00;;;;5054296;28;20460;-85
2022/01/27 06:03:54;;;;;;;31.33;20.47;;;3.20;1.00;3.70;101619.00;;;;5058056;28;20816;-85
2022/01/27 06:06:23;;;;;;;34.37;20.93;;;3.20;1.00;3.70;101617.00;;;;5058786;28;20462;-84
2022/01/27 06:08:53;;;;;;;30.13;19.37;;;3.20;1.00;3.70;101605.00;;;;5074230;28;20523;-85
2022/01/27 06:11:21;;;;;;;29.50;19.13;;;3.30;1.00;3.70;67080.00;;;;5059345;28;20451;-84
2022/01/27 06:13:49;;;;;;;28.20;19.30;;;3.30;1.00;3.70;101609.00;;;;5055750;28;20458;-84
2022/01/27 06:16:18;;;;;;;30.77;19.60;;;3.30;1.00;3.80;101604.00;;;;5059904;28;20525;-84
2022/01/27 06:18:47;;;;;;;29.10;18.47;;;3.30;1.00;3.80;67096.00;;;;5062389;28;20463;-83
2022/01/27 06:21:17;;;;;;;28.43;18.93;;;3.40;1.00;3.80;101589.00;;;;5078286;28;20459;-84
2022/01/27 06:23:46;;;;;;;31.20;18.40;;;3.30;1.00;3.80;101607.00;;;;5054737;28;20444;-84
2022/01/27 06:26:15;;;;;;;26.93;17.87;;;3.30;1.00;52.70;158308.00;;;;5051775;28;20543;-84
2022/01/27 06:28:44;;;;;;;27.60;18.37;;;3.30;1.00;3.80;101601.00;;;;5053487;28;20821;-84
2022/01/27 06:31:16;;;;;;;27.00;17.07;;;3.30;1.00;52.70;158292.00;;;;5054284;28;20458;-85
2022/01/27 06:33:44;;;;;;;26.40;17.40;;;3.30;1.00;3.80;101593.00;;;;5055252;28;20467;-84
2022/01/27 06:36:13;;;;;;;24.03;16.40;;;3.30;1.00;52.70;158282.00;;;;5057431;28;20455;-84
2022/01/27 06:38:41;;;;;;;28.17;16.83;;;3.40;1.00;3.80;67087.00;;;;5056106;28;20529;-85
2022/01/27 06:41:11;;;;;;;25.87;16.37;;;3.60;1.00;217.30;158292.00;;;;5059833;28;20461;-84
2022/01/27 06:43:41;;;;;;;25.80;15.90;;;3.60;1.00;3.80;101582.00;;;;5061126;28;20482;-84
2022/01/27 06:46:10;;;;;;;21.63;14.47;;;3.30;1.00;217.30;158292.00;;;;5062563;28;20448;-84
2022/01/27 06:48:38;;;;;;;27.70;18.30;;;3.50;1.00;3.80;101577.00;;;;5059236;28;20483;-85
2022/01/27 06:51:07;;;;;;;30.13;17.80;;;3.30;1.00;3.80;101574.00;;;;5060890;28;20450;-85
2022/01/27 06:53:35;;;;;;;26.33;16.50;;;3.30;1.00;3.80;101566.00;;;;5067778;28;20459;-84
2022/01/27 06:56:04;;;;;;;24.87;16.83;;;3.40;1.00;3.80;101562.00;;;;5059877;28;20453;-83
2022/01/27 06:58:34;;;;;;;23.83;15.53;;;3.40;1.00;3.80;101562.00;;;;5061512;28;21029;-84
2022/01/27 07:01:04;;;;;;;27.33;15.90;;;3.40;1.00;3.80;101555.00;;;;5061595;28;20458;-84
2022/01/27 07:03:35;;;;;;;23.70;16.10;;;3.40;1.00;3.70;101553.00;;;;5061387;28;20462;-85
2022/01/27 07:06:04;;;;;;;24.40;16.40;;;3.20;1.00;217.30;158251.00;;;;5064972;28;20460;-85
2022/01/27 07:08:32;;;;;;;25.23;15.63;;;3.40;1.00;52.70;158267.00;;;;5067663;28;20548;-85
2022/01/27 07:11:00;;;;;;;28.43;17.50;;;3.30;1.00;3.70;67080.00;;;;5076184;28;20802;-84
2022/01/27 07:13:29;;;;;;;22.73;15.10;;;3.20;1.00;-80.10;215308.00;;;;5079454;28;20546;-84
2022/01/27 07:15:57;;;;;;;24.97;16.03;;;3.20;1.00;3.60;101528.00;;;;5080480;28;21140;-84
2022/01/27 07:18:27;;;;;;;25.60;15.30;;;3.20;1.00;3.70;67053.00;;;;5059034;28;20482;-84
2022/01/27 07:20:55;;;;;;;25.77;15.87;;;3.20;1.00;3.60;67049.00;;;;5063812;28;20455;-84
2022/01/27 07:23:24;;;;;;;28.53;17.50;;;3.30;1.00;52.70;158174.00;;;;5062411;28;20444;-85
2022/01/27 07:25:52;;;;;;;29.57;18.80;;;3.00;1.00;52.70;158174.00;;;;5064169;28;20455;-85
2022/01/27 07:28:20;;;;;;;27.70;17.27;;;3.20;1.00;3.50;67025.00;;;;5059519;28;20487;-85
2022/01/27 07:30:49;;;;;;;28.60;16.90;;;3.00;1.00;3.50;67027.00;;;;5056967;28;20448;-85
2022/01/27 07:33:17;;;;;;;30.73;17.70;;;3.00;1.00;3.50;101493.00;;;;5059086;28;20455;-85
2022/01/27 07:35:47;;;;;;;34.70;18.50;;;3.00;1.00;3.50;101493.00;;;;5058437;28;20456;-84
2022/01/27 07:38:15;;;;;;;26.20;16.87;;;3.00;1.00;3.50;101494.00;;;;5056696;28;20554;-85
2022/01/27 07:40:44;;;;;;;30.30;16.53;;;3.20;1.00;3.50;101492.00;;;;5059301;28;20902;-83
2022/01/27 07:43:16;;;;;;;27.80;17.30;;;3.00;1.00;3.50;101482.00;;;;5044329;28;20451;-84
2022/01/27 07:45:45;;;;;;;28.20;17.30;;;3.00;1.00;3.40;101485.00;;;;5062033;28;20492;-84
2022/01/27 07:48:13;;;;;;;30.57;17.63;;;3.00;1.00;3.40;66990.00;;;;5058628;28;20488;-84
2022/01/27 07:50:42;;;;;;;27.50;17.97;;;2.90;1.00;3.30;101487.00;;;;5075139;28;20483;-84
2022/01/27 07:53:11;;;;;;;28.00;18.00;;;2.90;1.00;3.40;67005.00;;;;5065942;28;20448;-84
2022/01/27 07:55:40;;;;;;;26.97;15.33;;;2.90;1.00;3.40;101484.00;;;;5092988;28;20446;-84
2022/01/27 07:58:08;;;;;;;28.70;16.90;;;2.90;1.00;3.50;67025.00;;;;5076791;28;20474;-84
2022/01/27 08:00:37;;;;;;;25.93;16.80;;;3.00;1.00;3.50;67040.00;;;;5072707;28;20867;-85
2022/01/27 08:03:05;;;;;;;27.57;17.63;;;3.10;1.00;3.50;67037.00;;;;5083007;28;20955;-85
2022/01/27 08:05:34;;;;;;;29.40;17.17;;;3.10;1.00;3.50;67031.00;;;;5062413;28;20867;-85
2022/01/27 08:08:02;;;;;;;27.80;16.03;;;3.00;1.00;3.50;67040.00;;;;5059967;28;20594;-85
2022/01/27 08:10:37;;;;;;;26.10;17.63;;;3.00;1.00;3.50;67031.00;;;;5061182;28;20463;-83
2022/01/27 08:13:05;;;;;;;27.77;17.33;;;3.00;1.00;3.60;101480.00;;;;5069409;28;20446;-83
2022/01/27 08:15:34;;;;;;;27.50;17.80;;;3.10;1.00;3.60;67060.00;;;;5074867;28;20468;-84
2022/01/27 08:18:03;;;;;;;27.87;17.40;;;3.10;1.00;217.30;158235.00;;;;5079170;28;20489;-84
2022/01/27 08:20:31;;;;;;;29.23;17.50;;;3.40;1.00;3.60;67054.00;;;;5073946;28;20491;-84
2022/01/27 08:22:59;;;;;;;30.37;17.63;;;3.10;1.00;3.60;67053.00;;;;5068288;28;20501;-84
2022/01/27 08:25:28;;;;;;;25.60;15.53;;;3.10;1.00;52.70;158225.00;;;;5061371;28;20459;-85
2022/01/27 08:28:01;;;;;;;29.73;16.57;;;3.10;1.00;52.70;158183.00;;;;5065503;28;20482;-84
2022/01/27 08:30:36;;;;;;;27.90;16.83;;;3.10;1.00;3.50;67043.00;;;;5066516;28;20470;-84
2022/01/27 08:33:08;;;;;;;28.20;18.50;;;3.10;1.00;3.60;67033.00;;;;5066205;28;20941;-84
2022/01/27 08:35:37;;;;;;;27.80;17.87;;;3.10;1.00;3.60;67053.00;;;;5062586;28;20765;-83
2022/01/27 08:38:05;;;;;;;28.07;18.90;;;3.10;1.00;3.60;101463.00;;;;5074690;28;20502;-84
2022/01/27 08:40:35;;;;;;;34.03;18.03;;;3.10;1.00;3.60;101456.00;;;;5087950;28;20766;-85
2022/01/27 08:43:24;;;;;;;32.80;18.40;;;3.10;1.00;3.40;67016.00;;;;5072848;28;20463;-84
2022/01/27 08:45:53;;;;;;;32.70;19.50;;;3.00;1.00;52.70;158092.00;;;;5073831;28;20439;-84
2022/01/27 08:48:23;;;;;;;32.17;17.73;;;2.90;1.00;52.70;158112.00;;;;5057736;28;21271;-84
2022/01/27 08:50:58;;;;;;;37.20;20.50;;;2.90;1.00;217.30;158108.00;;;;5059326;28;20482;-85
2022/01/27 08:53:46;;;;;;;25.90;17.03;;;2.80;1.00;3.40;66998.00;;;;5062543;28;20456;-84
2022/01/27 08:56:16;;;;;;;35.17;20.93;;;2.90;1.00;3.40;66995.00;;;;5069219;28;20544;-85
2022/01/27 08:58:47;;;;;;;35.50;21.80;;;2.90;1.00;3.50;101474.00;;;;5068304;28;20483;-83
2022/01/27 09:01:15;;;;;;;34.83;22.67;;;2.90;1.00;3.50;67037.00;;;;5063744;28;20471;-83
2022/01/27 09:03:45;;;;;;;35.80;21.40;;;3.00;1.00;52.70;158170.00;;;;5070056;28;21355;-85
2022/01/27 09:06:14;;;;;;;35.70;21.97;;;3.00;1.00;-80.20;158174.00;;;;5056090;28;20528;-83
2022/01/27 09:08:42;;;;;;;35.90;20.93;;;3.10;1.00;3.50;101456.00;;;;5057964;28;20475;-83
2022/01/27 09:11:11;;;;;;;34.03;21.50;;;3.00;1.00;217.30;158219.00;;;;5058067;28;20447;-85
2022/01/27 09:13:41;;;;;;;36.77;21.53;;;3.10;1.00;217.30;158237.00;;;;5044563;28;20546;-83
2022/01/27 09:16:16;;;;;;;35.37;22.00;;;3.10;1.00;3.50;101461.00;;;;5045229;28;20457;-84
2022/01/27 09:18:45;;;;;;;34.90;20.90;;;3.00;1.00;3.50;101460.00;;;;5091928;28;20483;-86
2022/01/27 09:21:19;;;;;;;31.77;21.03;;;3.00;1.00;3.60;101449.00;;;;5073691;28;20472;-85
2022/01/27 09:23:48;;;;;;;39.57;21.83;;;3.00;1.00;3.50;101444.00;;;;5060249;28;20451;-86
2022/01/27 09:26:39;;;;;;;23.50;14.83;;;3.00;1.00;3.40;101445.00;;;;5075232;28;20496;-85
2022/01/27 09:29:07;;;;;;;32.30;21.30;;;2.90;1.00;3.40;67001.00;;;;5077365;28;20498;-86
2022/01/27 09:31:37;;;;;;;33.50;20.50;;;2.90;1.00;3.50;101441.00;;;;5080166;28;20462;-86
2022/01/27 09:34:13;;;;;;;36.07;20.97;;;3.00;1.00;3.60;67037.00;;;;5080836;28;20465;-87
2022/01/27 09:36:41;;;;;;;37.17;23.07;;;3.00;1.00;3.50;101445.00;;;;5082588;28;20462;-87
2022/01/27 09:39:10;;;;;;;32.23;22.13;;;3.00;1.00;3.40;101439.00;;;;5078505;28;20495;-86
2022/01/27 09:41:43;;;;;;;37.83;21.80;;;2.90;1.00;52.70;158170.00;;;;5094446;28;20439;-84
2022/01/27 09:44:13;;;;;;;34.07;21.60;;;3.00;1.00;3.60;101441.00;;;;5077362;28;20443;-84
2022/01/27 09:46:46;;;;;;;34.00;22.23;;;3.00;1.00;3.60;67067.00;;;;5081808;28;20437;-85
2022/01/27 09:49:17;;;;;;;35.40;20.87;;;3.10;1.00;3.70;101411.00;;;;5079317;28;20493;-84
2022/01/27 09:51:47;;;;;;;36.30;23.77;;;3.20;1.00;3.70;101431.00;;;;5056523;28;20454;-84
2022/01/27 09:54:18;;;;;;;32.70;20.87;;;3.20;1.00;3.70;67067.00;;;;5075293;28;20448;-84
2022/01/27 09:56:46;;;;;;;34.20;20.00;;;3.20;1.00;3.60;67046.00;;;;5073613;28;20736;-83
2022/01/27 09:59:17;;;;;;;31.30;19.47;;;3.10;1.00;3.50;101431.00;;;;5097344;28;20471;-84
2022/01/27 10:01:58;;;;;;;28.40;17.03;;;3.00;1.00;3.50;101439.00;;;;5058085;28;20452;-83
2022/01/27 10:04:48;;;;;;;32.50;20.80;;;3.00;1.00;3.50;101450.00;;;;5069599;28;20446;-84
2022/01/27 10:07:20;;;;;;;22.23;15.07;;;3.00;1.00;217.30;158174.00;;;;5062299;28;20462;-84
2022/01/27 10:10:01;;;;;;;29.10;18.20;;;3.00;1.00;3.60;67031.00;;;;5065007;28;20529;-84
2022/01/27 10:12:33;;;;;;;35.57;20.70;;;3.10;1.00;3.60;67060.00;;;;5061881;28;20981;-85
2022/01/27 10:15:09;;;;;;;28.10;17.60;;;3.10;1.00;3.70;67067.00;;;;5067434;28;20494;-83
2022/01/27 10:18:14;;;;;;;31.97;18.27;;;3.20;1.00;3.70;101412.00;;;;5076779;28;20451;-84
2022/01/27 10:20:46;;;;;;;28.33;18.57;;;3.20;1.00;3.80;67102.00;;;;5080960;28;20465;-82
2022/01/27 10:23:18;;;;;;;32.27;19.20;;;3.30;1.00;3.90;101401.00;;;;5099450;28;20464;-84
2022/01/27 10:25:52;;;;;;;27.17;17.40;;;3.40;1.00;3.90;101413.00;;;;5088583;28;20435;-83
2022/01/27 10:28:42;;;;;;;26.87;18.17;;;3.50;1.00;4.00;67150.00;;;;5080369;28;20535;-81
2022/01/27 10:31:18;;;;;;;24.30;16.67;;;3.50;1.00;217.30;158423.00;;;;5080358;28;20471;-83
2022/01/27 10:33:52;;;;;;;25.53;17.13;;;3.60;1.00;4.20;67181.00;;;;5077554;28;20447;-84
2022/01/27 10:36:25;;;;;;;29.77;17.67;;;3.70;1.00;4.10;67165.00;;;;5083150;28;20451;-83
2022/01/27 10:38:58;;;;;;;24.77;15.73;;;3.70;1.00;4.10;101393.00;;;;5083365;28;20487;-85
2022/01/27 10:41:29;;;;;;;30.47;17.60;;;3.60;1.00;217.30;158386.00;;;;5082671;28;20480;-84
2022/01/27 10:44:13;;;;;;;25.77;15.93;;;3.60;1.00;52.70;158392.00;;;;5074036;28;20459;-85
2022/01/27 10:47:04;;;;;;;26.37;17.83;;;3.70;1.00;4.00;67134.00;;;;5070125;28;20454;-85
2022/01/27 10:49:41;;;;;;;28.50;18.60;;;3.50;1.00;217.30;158380.00;;;;5068335;28;20525;-85
2022/01/27 10:52:12;;;;;;;26.87;16.50;;;3.50;1.00;4.00;101383.00;;;;5076249;28;20455;-85
2022/01/27 10:54:48;;;;;;;27.07;17.20;;;3.50;1.00;4.00;67148.00;;;;5078979;28;20443;-85
2022/01/27 10:57:17;;;;;;;22.03;15.53;;;3.50;1.00;4.00;101386.00;;;;5079821;28;20467;-85
2022/01/27 10:59:45;;;;;;;22.60;15.30;;;3.50;1.00;4.20;67173.00;;;;5083434;28;20476;-83
2022/01/27 11:02:15;;;;;;;18.30;12.23;;;3.60;1.00;217.30;158398.00;;;;5076376;28;20472;-86
2022/01/27 11:04:45;;;;;;;27.27;16.97;;;3.60;1.00;3.90;67102.00;;;;5072468;28;20557;-85
2022/01/27 11:07:17;;;;;;;28.17;18.07;;;3.40;1.00;52.70;158318.00;;;;5062012;28;20456;-85
2022/01/27 11:09:45;;;;;;;26.67;15.43;;;3.30;1.00;3.90;67125.00;;;;5070888;28;20485;-84
2022/01/27 11:12:18;;;;;;;24.03;14.60;;;3.40;1.00;4.00;101363.00;;;;5075147;28;20486;-85
2022/01/27 11:14:49;;;;;;;22.80;14.33;;;3.70;1.00;52.70;158406.00;;;;5070669;28;20522;-85
2022/01/27 11:17:20;;;;;;;26.03;16.40;;;3.50;1.00;4.20;67185.00;;;;5058685;28;20524;-85
2022/01/27 11:22:47;;;;;;;27.47;16.10;;;3.80;1.00;4.30;67197.00;;;;5053059;28;20489;-84
2022/01/27 11:28:05;;;;;;;24.60;15.10;;;3.90;1.00;4.20;101351.00;;;;5057310;28;20455;-85
2022/01/27 11:30:46;;;;;;;22.07;13.50;;;3.80;1.00;4.10;101355.00;;;;5071207;28;20471;-85
2022/01/27 11:33:16;;;;;;;26.70;16.60;;;3.70;1.00;4.10;67161.00;;;;5073870;28;20476;-85